Time;durP1;ratioP1;P1;durP2;ratioP2;P2;SDS_P1;SDS_P2;PMS_P1;PMS_P2;Temp;Humidity;BMP_temperature;BMP_pressure;BME280_temperature;BME280_humidity;BME280_pressure;Samples;Min_cycle;Max_cycle;Signal;HPM_P1;HPM_P2
2024/01/17 00:00:54;;;;;;;11.60;5.07;;;1.20;99.90;;;;;;6087769;23;20014;-73
2024/01/17 00:03:20;;;;;;;10.07;5.03;;;1.20;99.90;;;;;;6087838;23;20455;-72
2024/01/17 00:05:46;;;;;;;11.85;5.78;;;1.10;99.90;;;;;;6090559;23;20030;-72
2024/01/17 00:08:11;;;;;;;9.20;5.25;;;1.10;99.90;;;;;;6089640;23;20138;-73
2024/01/17 00:10:37;;;;;;;12.68;6.38;;;1.10;99.90;;;;;;6089671;23;20501;-72
2024/01/17 00:13:03;;;;;;;13.52;6.05;;;1.10;99.90;;;;;;6091220;23;20584;-72
2024/01/17 00:15:30;;;;;;;13.15;6.88;;;1.10;99.90;;;;;;6086771;23;20026;-72
2024/01/17 00:17:56;;;;;;;9.88;5.85;;;1.10;99.90;;;;;;6101708;23;20033;-73
2024/01/17 00:20:21;;;;;;;13.48;5.72;;;1.10;99.90;;;;;;6095339;23;20026;-73
2024/01/17 00:22:49;;;;;;;10.90;5.72;;;1.20;99.90;;;;;;6094403;23;20017;-73
2024/01/17 00:25:15;;;;;;;10.23;5.70;;;1.20;99.90;;;;;;6121466;23;20014;-73
2024/01/17 00:27:41;;;;;;;14.05;6.65;;;1.20;99.90;;;;;;6120861;23;20711;-72
2024/01/17 00:30:07;;;;;;;12.18;6.05;;;1.20;99.90;;;;;;6121383;23;20124;-72
2024/01/17 00:32:33;;;;;;;10.75;6.05;;;1.20;99.90;;;;;;6120143;23;20166;-72
2024/01/17 00:34:58;;;;;;;11.95;5.93;;;1.10;99.90;;;;;;6094577;23;20464;-73
2024/01/17 00:37:25;;;;;;;11.77;5.97;;;1.20;99.90;;;;;;6119984;23;20109;-73
2024/01/17 00:39:51;;;;;;;16.15;7.00;;;1.10;99.90;;;;;;6094925;23;20564;-72
2024/01/17 00:42:16;;;;;;;15.00;6.60;;;1.10;99.90;;;;;;6070466;23;20466;-73
2024/01/17 00:44:42;;;;;;;16.75;6.78;;;1.10;99.90;;;;;;6094804;23;20022;-73
2024/01/17 00:47:08;;;;;;;14.65;6.35;;;1.10;99.90;;;;;;6120527;23;20068;-73
2024/01/17 00:49:34;;;;;;;14.98;8.07;;;1.10;99.90;;;;;;6120275;23;20057;-73
2024/01/17 00:52:00;;;;;;;12.77;6.82;;;1.10;99.90;;;;;;6120941;23;20042;-73
2024/01/17 00:54:26;;;;;;;17.45;6.60;;;1.10;99.90;;;;;;6095807;23;20342;-73
2024/01/17 00:56:51;;;;;;;13.02;6.75;;;1.10;99.90;;;;;;6120969;23;20029;-73
2024/01/17 00:59:17;;;;;;;13.98;5.85;;;1.10;99.90;;;;;;6121811;23;20103;-73
2024/01/17 01:01:43;;;;;;;16.17;6.25;;;1.10;99.90;;;;;;6095665;23;20354;-73
2024/01/17 01:04:08;;;;;;;11.55;6.20;;;1.10;99.90;;;;;;6121247;23;20018;-73
2024/01/17 01:06:34;;;;;;;9.27;5.70;;;1.10;99.90;;;;;;6122829;23;20066;-72
2024/01/17 01:09:00;;;;;;;14.68;6.40;;;1.10;99.90;;;;;;6122608;23;20018;-73
2024/01/17 01:11:32;;;;;;;9.80;6.38;;;1.10;99.90;;;;;;6121510;23;20109;-73
2024/01/17 01:13:59;;;;;;;10.75;6.28;;;1.10;99.90;;;;;;6120663;23;20375;-73
2024/01/17 01:16:24;;;;;;;13.27;6.18;;;1.10;99.90;;;;;;6120144;23;20458;-73
2024/01/17 01:18:50;;;;;;;13.93;5.68;;;1.10;99.90;;;;;;6121322;23;20050;-72
2024/01/17 01:21:16;;;;;;;13.07;6.50;;;1.10;99.90;;;;;;6122754;23;20434;-73
2024/01/17 01:23:42;;;;;;;12.23;6.50;;;1.10;99.90;;;;;;6122316;23;20018;-72
2024/01/17 01:26:08;;;;;;;15.65;5.78;;;1.10;99.90;;;;;;6122594;23;20034;-73
2024/01/17 01:28:33;;;;;;;16.20;6.78;;;1.10;99.90;;;;;;6122206;23;20125;-73
2024/01/17 01:30:59;;;;;;;11.88;6.43;;;1.10;99.90;;;;;;6121730;23;20153;-73
2024/01/17 01:33:25;;;;;;;13.75;6.30;;;1.10;99.90;;;;;;6121937;23;20022;-72
2024/01/17 01:35:50;;;;;;;12.02;5.60;;;1.10;99.90;;;;;;6096517;23;20026;-72
2024/01/17 01:38:16;;;;;;;14.45;6.70;;;1.10;99.90;;;;;;6095872;23;20053;-72
2024/01/17 01:40:42;;;;;;;14.48;6.55;;;1.10;99.90;;;;;;6095819;23;20106;-73
2024/01/17 01:43:19;;;;;;;12.25;6.53;;;1.10;99.90;;;;;;6071964;23;20029;-73
2024/01/17 01:45:53;;;;;;;13.93;6.30;;;1.10;99.90;;;;;;6071695;23;20018;-73
2024/01/17 01:48:19;;;;;;;12.35;6.30;;;1.10;99.90;;;;;;6094442;23;20029;-72
2024/01/17 01:50:45;;;;;;;9.93;6.68;;;1.10;99.90;;;;;;6095904;23;20022;-72
2024/01/17 01:53:10;;;;;;;13.88;7.13;;;1.10;99.90;;;;;;6122285;23;20350;-72
2024/01/17 01:55:36;;;;;;;15.07;6.72;;;1.10;99.90;;;;;;6095683;23;20175;-72
2024/01/17 01:58:02;;;;;;;13.13;6.35;;;1.10;99.90;;;;;;6095551;23;20029;-72
2024/01/17 02:00:27;;;;;;;14.73;6.85;;;1.00;99.90;;;;;;6121434;23;20025;-72
2024/01/17 02:02:54;;;;;;;14.73;6.90;;;1.10;99.90;;;;;;6095844;23;20073;-71
2024/01/17 02:05:20;;;;;;;9.82;6.20;;;1.00;99.90;;;;;;6121037;23;20018;-72
2024/01/17 02:07:48;;;;;;;11.45;6.60;;;1.00;99.90;;;;;;6094146;23;20073;-71
2024/01/17 02:10:14;;;;;;;14.25;6.65;;;1.00;99.90;;;;;;6122079;23;20022;-72
2024/01/17 02:12:42;;;;;;;11.93;6.90;;;1.00;99.90;;;;;;6095274;23;20060;-72
2024/01/17 02:15:08;;;;;;;13.85;7.03;;;1.00;99.90;;;;;;6116769;23;20057;-72
2024/01/17 02:17:34;;;;;;;15.43;6.93;;;1.00;99.90;;;;;;6120351;23;20516;-71
2024/01/17 02:19:59;;;;;;;13.23;7.32;;;1.00;99.90;;;;;;6121372;23;20113;-72
2024/01/17 02:22:25;;;;;;;11.48;5.90;;;1.00;99.90;;;;;;6120692;23;20014;-73
2024/01/17 02:24:51;;;;;;;11.43;6.95;;;1.00;99.90;;;;;;6072030;23;20014;-72
2024/01/17 02:27:16;;;;;;;11.98;6.72;;;1.00;99.90;;;;;;6121561;23;20025;-72
2024/01/17 02:29:45;;;;;;;16.42;7.32;;;1.00;99.90;;;;;;6094762;23;20565;-72
2024/01/17 02:32:11;;;;;;;13.43;7.70;;;1.00;99.90;;;;;;6095177;23;20033;-72
2024/01/17 02:34:37;;;;;;;16.42;7.75;;;1.00;99.90;;;;;;6095036;23;20446;-72
2024/01/17 02:37:03;;;;;;;12.02;7.35;;;1.00;99.90;;;;;;6121584;23;20030;-72
2024/01/17 02:39:28;;;;;;;14.95;7.93;;;0.90;99.90;;;;;;6120846;23;20555;-73
2024/01/17 02:41:54;;;;;;;14.90;8.45;;;0.90;99.90;;;;;;6121308;23;20045;-72
2024/01/17 02:44:20;;;;;;;15.80;8.68;;;0.90;99.90;;;;;;6121375;23;20018;-72
2024/01/17 02:46:46;;;;;;;14.32;7.57;;;0.90;99.90;;;;;;6121819;23;20018;-73
2024/01/17 02:49:19;;;;;;;17.30;9.73;;;0.90;99.90;;;;;;6120984;23;20084;-72
2024/01/17 02:51:45;;;;;;;16.25;8.13;;;0.90;99.90;;;;;;6121281;23;20028;-72
2024/01/17 02:54:11;;;;;;;13.95;7.78;;;0.90;99.90;;;;;;6121830;23;20120;-72
2024/01/17 02:56:36;;;;;;;17.17;8.05;;;0.90;99.90;;;;;;6120610;23;20061;-72
2024/01/17 02:59:02;;;;;;;16.23;8.13;;;0.90;99.90;;;;;;6121300;23;20022;-72
2024/01/17 03:01:28;;;;;;;20.25;9.52;;;0.90;99.90;;;;;;6119700;23;20061;-73
2024/01/17 03:03:54;;;;;;;16.50;8.60;;;0.90;99.90;;;;;;6094422;23;20046;-73
2024/01/17 03:06:20;;;;;;;16.70;8.73;;;0.90;99.90;;;;;;6070752;23;20018;-73
2024/01/17 03:08:45;;;;;;;14.98;8.80;;;0.90;99.90;;;;;;6093833;23;20395;-73
2024/01/17 03:11:11;;;;;;;16.00;8.77;;;0.90;99.90;;;;;;6094356;23;20026;-73
2024/01/17 03:13:37;;;;;;;15.50;9.30;;;0.90;99.90;;;;;;6094468;23;20076;-73
2024/01/17 03:16:02;;;;;;;19.20;9.60;;;0.90;99.90;;;;;;6068410;23;20068;-73
2024/01/17 03:18:29;;;;;;;15.93;9.40;;;0.90;99.90;;;;;;6092799;23;20027;-73
2024/01/17 03:20:54;;;;;;;17.95;9.27;;;0.90;99.90;;;;;;6094973;23;20020;-73
2024/01/17 03:23:21;;;;;;;18.23;8.98;;;0.90;99.90;;;;;;6094850;23;20053;-73
2024/01/17 03:25:47;;;;;;;21.50;10.05;;;0.90;99.90;;;;;;6094658;23;20053;-73
2024/01/17 03:28:13;;;;;;;16.95;10.75;;;0.90;99.90;;;;;;6094588;23;20657;-73
2024/01/17 03:30:38;;;;;;;19.80;9.60;;;0.80;99.90;;;;;;6094554;23;20018;-73
2024/01/17 03:33:05;;;;;;;18.33;11.02;;;0.90;99.90;;;;;;6094857;23;20053;-73
2024/01/17 03:35:30;;;;;;;15.88;10.73;;;0.90;99.90;;;;;;6070597;23;20021;-73
2024/01/17 03:37:57;;;;;;;18.77;10.68;;;0.90;99.90;;;;;;6094467;23;20021;-73
2024/01/17 03:40:23;;;;;;;19.17;10.02;;;0.80;99.90;;;;;;6120651;23;20064;-73
2024/01/17 03:42:49;;;;;;;20.17;10.80;;;0.80;99.90;;;;;;6071177;23;20471;-73
2024/01/17 03:45:14;;;;;;;18.63;10.68;;;0.80;99.90;;;;;;6093657;23;20021;-73
2024/01/17 03:47:40;;;;;;;21.40;10.52;;;0.90;99.90;;;;;;6119005;23;20022;-74
2024/01/17 03:50:06;;;;;;;18.52;9.15;;;0.80;99.90;;;;;;6121355;23;20014;-73
2024/01/17 03:52:31;;;;;;;17.15;9.98;;;0.80;99.90;;;;;;6120652;23;20021;-73
2024/01/17 03:54:58;;;;;;;18.70;11.52;;;0.80;99.90;;;;;;6121546;23;20018;-73
2024/01/17 03:57:23;;;;;;;17.52;8.57;;;0.80;99.90;;;;;;6121077;23;20513;-73
2024/01/17 03:59:49;;;;;;;20.52;9.45;;;0.90;99.90;;;;;;6120718;23;20021;-73
2024/01/17 04:02:15;;;;;;;16.10;9.25;;;0.80;99.90;;;;;;6120844;23;20443;-73
2024/01/17 04:04:41;;;;;;;23.58;10.98;;;0.80;99.90;;;;;;6094798;23;20017;-73
2024/01/17 04:07:08;;;;;;;19.42;10.68;;;0.90;99.90;;;;;;6094111;23;20018;-73
2024/01/17 04:09:34;;;;;;;17.00;9.43;;;0.90;99.90;;;;;;6120156;23;20343;-73
2024/01/17 04:12:00;;;;;;;20.08;10.52;;;0.90;99.90;;;;;;6121034;23;20018;-73
2024/01/17 04:14:25;;;;;;;19.95;10.02;;;0.90;99.90;;;;;;6092104;23;20658;-73
2024/01/17 04:16:51;;;;;;;20.45;10.55;;;0.90;99.90;;;;;;6069093;23;20073;-73
2024/01/17 04:19:17;;;;;;;16.30;10.38;;;0.90;99.90;;;;;;6120791;23;20032;-73
2024/01/17 04:21:42;;;;;;;21.00;11.25;;;0.90;99.90;;;;;;6094785;23;20100;-73
2024/01/17 04:24:08;;;;;;;16.88;9.68;;;0.90;99.90;;;;;;6071155;23;20025;-73
2024/01/17 04:26:34;;;;;;;15.68;9.68;;;0.90;99.90;;;;;;6095251;23;20073;-72
2024/01/17 04:28:59;;;;;;;17.83;10.18;;;0.90;99.90;;;;;;6094559;23;20022;-72
2024/01/17 04:31:27;;;;;;;16.98;10.43;;;0.90;99.90;;;;;;6094550;23;20101;-72
2024/01/17 04:33:54;;;;;;;18.00;10.38;;;0.90;99.90;;;;;;6094533;23;20018;-72
2024/01/17 04:36:21;;;;;;;18.77;10.07;;;0.90;99.90;;;;;;6120483;23;20014;-72
2024/01/17 04:38:47;;;;;;;18.48;9.85;;;0.90;99.90;;;;;;6121066;23;20022;-72
2024/01/17 04:41:15;;;;;;;22.23;10.55;;;0.90;99.90;;;;;;6120609;23;20025;-72
2024/01/17 04:43:42;;;;;;;20.75;10.05;;;0.90;99.90;;;;;;6120553;23;20153;-72
2024/01/17 04:46:12;;;;;;;22.20;10.73;;;0.90;99.90;;;;;;6120611;23;20025;-72
2024/01/17 04:48:39;;;;;;;19.67;10.18;;;0.90;99.90;;;;;;6120683;23;20540;-70
2024/01/17 04:51:06;;;;;;;19.05;9.77;;;0.90;99.90;;;;;;6094399;23;20488;-70
2024/01/17 04:53:35;;;;;;;19.75;11.02;;;0.90;99.90;;;;;;6121465;23;20018;-70
2024/01/17 04:56:02;;;;;;;18.17;11.27;;;0.90;99.90;;;;;;6120568;23;20058;-70
2024/01/17 04:58:28;;;;;;;18.13;11.15;;;0.90;99.90;;;;;;6120361;23;20081;-70
2024/01/17 05:00:54;;;;;;;19.33;10.93;;;0.80;99.90;;;;;;6095179;23;20022;-70
2024/01/17 05:03:20;;;;;;;19.00;11.40;;;0.80;99.90;;;;;;6121274;23;20050;-70
2024/01/17 05:05:45;;;;;;;21.33;11.80;;;0.80;99.90;;;;;;6096500;23;20100;-70
2024/01/17 05:08:12;;;;;;;19.25;11.55;;;0.70;99.90;;;;;;6096556;23;20026;-70
2024/01/17 05:10:44;;;;;;;21.02;12.40;;;0.70;99.90;;;;;;6096036;23;20235;-70
2024/01/17 05:13:11;;;;;;;19.80;11.90;;;0.70;99.90;;;;;;6096364;23;20025;-70
2024/01/17 05:15:36;;;;;;;15.65;10.48;;;0.70;99.90;;;;;;6091867;23;20022;-70
2024/01/17 05:18:06;;;;;;;25.67;12.60;;;0.70;99.90;;;;;;6094886;23;20033;-70
2024/01/17 05:20:32;;;;;;;17.83;11.23;;;0.70;99.90;;;;;;6122956;23;20022;-70
2024/01/17 05:22:58;;;;;;;21.85;12.38;;;0.60;99.90;;;;;;6121721;23;20033;-69
2024/01/17 05:25:24;;;;;;;21.88;12.25;;;0.60;99.90;;;;;;6122539;23;20060;-70
2024/01/17 05:27:52;;;;;;;19.35;11.95;;;0.60;99.90;;;;;;6122354;23;20014;-70
2024/01/17 05:30:23;;;;;;;17.75;11.18;;;0.60;99.90;;;;;;6095423;23;20025;-70
2024/01/17 05:32:49;;;;;;;21.83;12.02;;;0.60;99.90;;;;;;6095562;23;20030;-70
2024/01/17 05:35:16;;;;;;;23.48;12.07;;;0.60;99.90;;;;;;6095787;23;20072;-70
2024/01/17 05:37:42;;;;;;;19.73;10.75;;;0.50;99.90;;;;;;6121566;23;20496;-70
2024/01/17 05:40:09;;;;;;;20.08;12.77;;;0.50;99.90;;;;;;6122895;23;20089;-69
2024/01/17 05:42:36;;;;;;;18.92;11.30;;;0.50;99.90;;;;;;6121363;23;20120;-70
2024/01/17 05:45:02;;;;;;;25.15;12.63;;;0.50;99.90;;;;;;6121038;23;20044;-70
2024/01/17 05:47:28;;;;;;;27.90;12.13;;;0.40;99.90;;;;;;6121974;23;20345;-70
2024/01/17 05:49:54;;;;;;;23.40;11.50;;;0.40;99.90;;;;;;6122169;23;20049;-70
2024/01/17 05:52:19;;;;;;;22.13;11.52;;;0.40;99.90;;;;;;6121543;23;20350;-69
2024/01/17 05:54:45;;;;;;;20.75;11.10;;;0.40;99.90;;;;;;6122390;23;20566;-70
2024/01/17 05:57:11;;;;;;;17.52;10.90;;;0.40;99.90;;;;;;6122076;23;20029;-70
2024/01/17 05:59:36;;;;;;;18.10;11.65;;;0.30;99.90;;;;;;6121921;23;20014;-70
2024/01/17 06:02:02;;;;;;;21.77;11.20;;;0.40;99.90;;;;;;6094305;23;20042;-70
2024/01/17 06:04:28;;;;;;;22.13;11.57;;;0.30;99.90;;;;;;6121637;23;20009;-70
2024/01/17 06:06:54;;;;;;;16.02;11.52;;;0.30;99.90;;;;;;6095661;23;20092;-71
2024/01/17 06:09:20;;;;;;;20.48;10.68;;;0.30;99.90;;;;;;6121935;23;20025;-71
2024/01/17 06:11:46;;;;;;;22.83;11.63;;;0.30;99.90;;;;;;6120520;23;20462;-70
2024/01/17 06:14:12;;;;;;;22.38;12.18;;;0.30;99.90;;;;;;6092772;23;20040;-72
2024/01/17 06:16:37;;;;;;;23.13;12.25;;;0.30;99.90;;;;;;6120145;23;20502;-71
2024/01/17 06:19:03;;;;;;;18.90;11.68;;;0.30;99.90;;;;;;6123035;23;20482;-71
2024/01/17 06:21:29;;;;;;;24.67;11.73;;;0.20;99.90;;;;;;6071684;23;20029;-71
2024/01/17 06:23:55;;;;;;;24.35;12.05;;;0.30;99.90;;;;;;6095795;23;20022;-70
2024/01/17 06:26:21;;;;;;;21.83;12.00;;;0.30;99.90;;;;;;6095325;23;20014;-70
2024/01/17 06:28:46;;;;;;;22.42;12.23;;;0.30;99.90;;;;;;6121157;23;20080;-70
2024/01/17 06:31:25;;;;;;;22.75;12.82;;;0.30;99.90;;;;;;6121632;23;20021;-69
2024/01/17 06:33:54;;;;;;;18.55;11.30;;;0.30;99.90;;;;;;6094156;23;20025;-71
2024/01/17 06:36:20;;;;;;;20.65;11.85;;;0.30;99.90;;;;;;6069518;23;20620;-71
2024/01/17 06:38:46;;;;;;;21.75;12.70;;;0.40;99.90;;;;;;6094071;23;20030;-69
2024/01/17 06:41:12;;;;;;;22.15;11.98;;;0.40;99.90;;;;;;6070548;23;20037;-69
2024/01/17 06:43:38;;;;;;;23.55;12.25;;;0.40;99.90;;;;;;6094107;23;20022;-70
2024/01/17 06:46:04;;;;;;;23.48;13.05;;;0.40;99.90;;;;;;6094837;23;20018;-69
2024/01/17 06:48:30;;;;;;;22.27;11.82;;;0.40;99.90;;;;;;6070122;23;20109;-68
2024/01/17 06:50:56;;;;;;;21.00;11.25;;;0.30;99.90;;;;;;6094743;23;20018;-69
2024/01/17 06:53:22;;;;;;;23.05;11.65;;;0.30;99.90;;;;;;6095793;23;20029;-70
2024/01/17 06:55:48;;;;;;;24.05;11.80;;;0.30;99.90;;;;;;6094674;23;20024;-69
2024/01/17 06:58:14;;;;;;;20.85;11.52;;;0.30;99.90;;;;;;6070364;23;20033;-70
2024/01/17 07:00:41;;;;;;;20.33;12.05;;;0.30;99.90;;;;;;6094245;23;20085;-69
2024/01/17 07:03:07;;;;;;;20.70;11.40;;;0.30;99.90;;;;;;6093840;23;20022;-70
2024/01/17 07:05:32;;;;;;;22.67;12.70;;;0.20;99.90;;;;;;6095060;23;20025;-70
2024/01/17 07:07:58;;;;;;;23.00;11.07;;;0.20;99.90;;;;;;6121190;23;20490;-69
2024/01/17 07:10:24;;;;;;;25.40;12.98;;;0.10;99.90;;;;;;6120464;23;20599;-69
2024/01/17 07:12:53;;;;;;;33.42;13.55;;;0.10;99.90;;;;;;6121361;23;20024;-70
2024/01/17 07:15:18;;;;;;;22.40;12.25;;;0.10;99.90;;;;;;6118499;23;20049;-71
2024/01/17 07:17:44;;;;;;;19.63;12.65;;;0.10;99.90;;;;;;6120402;23;20495;-70
2024/01/17 07:20:11;;;;;;;22.95;11.55;;;0.10;99.90;;;;;;6120217;23;20017;-70
2024/01/17 07:22:44;;;;;;;22.50;12.77;;;0.10;99.90;;;;;;6121319;23;20022;-69
2024/01/17 07:25:12;;;;;;;22.73;11.55;;;0.00;99.90;;;;;;6120381;23;20755;-70
2024/01/17 07:27:43;;;;;;;19.02;11.38;;;0.00;99.90;;;;;;6119753;23;20026;-70
2024/01/17 07:30:13;;;;;;;19.92;11.18;;;0.00;99.90;;;;;;6094316;23;20796;-69
2024/01/17 07:32:39;;;;;;;24.55;11.73;;;0.00;99.90;;;;;;6094465;23;20052;-69
2024/01/17 07:35:09;;;;;;;24.58;13.13;;;-0.10;99.90;;;;;;6093266;23;20025;-69
2024/01/17 07:37:35;;;;;;;19.88;11.35;;;-0.10;99.90;;;;;;6070482;23;20030;-68
2024/01/17 07:40:01;;;;;;;24.70;12.48;;;-0.10;99.90;;;;;;6094776;23;20037;-69
2024/01/17 07:42:27;;;;;;;21.85;12.05;;;-0.10;99.90;;;;;;6094688;23;20022;-69
2024/01/17 07:44:52;;;;;;;21.17;11.50;;;-0.10;99.90;;;;;;6119889;23;20060;-69
2024/01/17 07:47:18;;;;;;;22.25;11.82;;;-0.20;99.90;;;;;;6093525;23;20113;-68
2024/01/17 07:49:45;;;;;;;28.83;11.77;;;-0.20;99.90;;;;;;6094411;23;20014;-70
2024/01/17 07:52:10;;;;;;;22.10;11.52;;;-0.20;99.90;;;;;;6091589;23;20021;-69
2024/01/17 07:54:36;;;;;;;21.58;12.20;;;-0.20;99.90;;;;;;6120518;23;20124;-69
2024/01/17 07:57:03;;;;;;;19.50;11.75;;;-0.10;99.90;;;;;;6120405;23;20041;-69
2024/01/17 07:59:28;;;;;;;20.13;11.90;;;-0.10;99.90;;;;;;6121044;23;20096;-69
2024/01/17 08:01:55;;;;;;;20.45;12.65;;;-0.10;99.90;;;;;;6093907;23;20096;-69
2024/01/17 08:04:21;;;;;;;22.90;11.75;;;-0.10;99.90;;;;;;6119172;23;20026;-69
2024/01/17 08:06:47;;;;;;;21.52;12.20;;;0.00;99.90;;;;;;6094400;23;20022;-69
2024/01/17 08:09:25;;;;;;;22.60;12.10;;;0.00;99.90;;;;;;6120616;23;20040;-69
2024/01/17 08:11:56;;;;;;;25.35;13.68;;;0.00;99.90;;;;;;6119871;23;20524;-69
2024/01/17 08:14:22;;;;;;;19.45;12.13;;;0.10;99.90;;;;;;6118807;23;20014;-69
2024/01/17 08:16:48;;;;;;;30.15;15.10;;;0.00;99.90;;;;;;6120122;23;20022;-69
2024/01/17 08:19:15;;;;;;;25.95;13.77;;;0.10;99.90;;;;;;6119775;23;20017;-69
2024/01/17 08:21:41;;;;;;;27.58;12.52;;;0.00;99.90;;;;;;6093491;23;20037;-70
2024/01/17 08:24:06;;;;;;;29.27;14.18;;;0.00;99.90;;;;;;6046984;23;20018;-70
2024/01/17 08:26:32;;;;;;;23.42;13.32;;;0.00;99.90;;;;;;6093898;23;20029;-70
2024/01/17 08:28:58;;;;;;;21.98;12.75;;;0.00;99.90;;;;;;6093544;23;20049;-70
2024/01/17 08:31:24;;;;;;;19.63;11.73;;;0.00;99.90;;;;;;6070561;23;20010;-70
2024/01/17 08:33:52;;;;;;;21.50;12.90;;;0.10;99.90;;;;;;6121343;23;20018;-70
2024/01/17 08:36:18;;;;;;;28.27;13.32;;;0.10;99.90;;;;;;6098728;23;20025;-69
2024/01/17 08:38:44;;;;;;;19.20;11.48;;;0.10;99.90;;;;;;6095922;23;20014;-70
2024/01/17 08:41:10;;;;;;;19.65;11.82;;;0.10;99.90;;;;;;6093976;23;20026;-69
2024/01/17 08:43:36;;;;;;;20.60;12.02;;;0.10;99.90;;;;;;6094713;23;20049;-70
2024/01/17 08:46:03;;;;;;;19.88;11.15;;;0.20;99.90;;;;;;6071207;23;20113;-70
2024/01/17 08:48:29;;;;;;;20.67;11.50;;;0.20;99.90;;;;;;6120463;23;20787;-69
2024/01/17 08:50:56;;;;;;;22.70;11.27;;;0.20;99.90;;;;;;6121489;23;20081;-69
2024/01/17 08:53:22;;;;;;;16.17;10.73;;;0.30;99.90;;;;;;6121157;23;20521;-69
2024/01/17 08:55:48;;;;;;;19.02;10.25;;;0.30;99.90;;;;;;6122468;23;20021;-69
2024/01/17 08:58:14;;;;;;;19.60;10.30;;;0.30;99.90;;;;;;6122600;23;20026;-70
2024/01/17 09:00:39;;;;;;;22.23;11.43;;;0.30;99.90;;;;;;6121947;23;20350;-68
2024/01/17 09:03:05;;;;;;;17.60;11.38;;;0.40;99.90;;;;;;6096437;23;20014;-69
2024/01/17 09:05:31;;;;;;;18.63;10.65;;;0.40;99.90;;;;;;6072437;23;20450;-70
2024/01/17 09:07:58;;;;;;;18.40;10.55;;;0.40;99.90;;;;;;6094490;23;20032;-69
2024/01/17 09:10:24;;;;;;;18.35;10.13;;;0.40;99.90;;;;;;6095635;23;20032;-69
2024/01/17 09:12:50;;;;;;;19.42;10.13;;;0.40;99.90;;;;;;6096306;23;20025;-69
2024/01/17 09:15:16;;;;;;;18.45;10.38;;;0.50;99.90;;;;;;6091523;23;20022;-69
2024/01/17 09:17:42;;;;;;;17.33;10.60;;;0.50;99.90;;;;;;6092862;23;20530;-69
2024/01/17 09:20:08;;;;;;;18.58;9.75;;;0.50;99.90;;;;;;6071704;23;20026;-70
2024/01/17 09:22:34;;;;;;;17.40;10.65;;;0.50;99.90;;;;;;6094187;23;20362;-70
2024/01/17 09:25:02;;;;;;;17.23;10.07;;;0.60;99.90;;;;;;6095316;23;20022;-70
2024/01/17 09:27:31;;;;;;;18.15;10.55;;;0.60;99.90;;;;;;6122187;23;20018;-69
2024/01/17 09:29:56;;;;;;;21.50;10.52;;;0.60;99.90;;;;;;6121457;23;20324;-69
2024/01/17 09:32:22;;;;;;;19.52;9.90;;;0.60;99.90;;;;;;6121374;23;20032;-69
2024/01/17 09:34:48;;;;;;;20.23;10.57;;;0.70;99.90;;;;;;6121821;23;20018;-70
2024/01/17 09:37:14;;;;;;;17.60;10.13;;;0.70;99.90;;;;;;6121664;23;20025;-69
2024/01/17 09:39:40;;;;;;;14.13;9.27;;;0.70;99.90;;;;;;6096669;23;20013;-70
2024/01/17 09:42:06;;;;;;;18.23;9.80;;;0.70;99.90;;;;;;6122343;23;20018;-70
2024/01/17 09:44:34;;;;;;;17.50;9.95;;;0.70;99.90;;;;;;6121780;23;20014;-70
2024/01/17 09:47:01;;;;;;;16.15;9.30;;;0.70;99.90;;;;;;6121576;23;20043;-70
2024/01/17 09:49:28;;;;;;;22.30;9.93;;;0.80;99.90;;;;;;6095277;23;20101;-70
2024/01/17 09:51:54;;;;;;;14.85;10.23;;;0.80;99.90;;;;;;6121513;23;20464;-70
2024/01/17 09:54:24;;;;;;;22.80;10.80;;;0.80;99.90;;;;;;6095420;23;20021;-69
2024/01/17 09:56:54;;;;;;;15.35;9.55;;;0.80;99.90;;;;;;6095655;23;20017;-70
2024/01/17 09:59:27;;;;;;;21.20;10.00;;;0.80;99.90;;;;;;6096198;23;20029;-70
2024/01/17 10:01:55;;;;;;;17.67;10.65;;;0.80;99.90;;;;;;6121617;23;20091;-70
2024/01/17 10:04:23;;;;;;;18.75;9.88;;;0.80;99.90;;;;;;6121841;23;20089;-70
2024/01/17 10:06:49;;;;;;;15.80;9.82;;;0.80;99.90;;;;;;6122352;23;20014;-70
2024/01/17 10:09:15;;;;;;;15.70;9.95;;;0.80;99.90;;;;;;6095756;23;20022;-70
2024/01/17 10:11:41;;;;;;;18.17;9.20;;;0.80;99.90;;;;;;6121943;23;20022;-70
2024/01/17 10:14:10;;;;;;;15.57;8.70;;;0.80;99.90;;;;;;6120594;23;20045;-70
2024/01/17 10:16:35;;;;;;;17.65;9.70;;;0.90;99.90;;;;;;6093879;23;20418;-70
2024/01/17 10:19:04;;;;;;;16.95;9.20;;;0.80;99.90;;;;;;6119508;23;20025;-70
2024/01/17 10:21:33;;;;;;;19.25;10.35;;;0.90;99.90;;;;;;6096540;23;20028;-70
2024/01/17 10:23:59;;;;;;;19.05;8.95;;;0.90;99.90;;;;;;6095398;23;20057;-70
2024/01/17 10:26:25;;;;;;;16.85;8.23;;;0.90;99.90;;;;;;6120511;23;20018;-70
2024/01/17 10:28:52;;;;;;;20.92;8.85;;;0.90;99.90;;;;;;6121346;23;20029;-70
2024/01/17 10:31:21;;;;;;;18.67;8.45;;;1.00;99.90;;;;;;6121849;23;20379;-71
2024/01/17 10:33:48;;;;;;;17.67;8.18;;;1.00;99.90;;;;;;6095310;23;20022;-70
2024/01/17 10:36:14;;;;;;;14.27;7.55;;;1.00;99.90;;;;;;6095143;23;20045;-70
2024/01/17 10:38:40;;;;;;;13.98;6.72;;;1.10;99.90;;;;;;6121844;23;20471;-70
2024/01/17 10:41:07;;;;;;;15.10;8.02;;;1.10;99.90;;;;;;6121443;23;20014;-70
2024/01/17 10:43:39;;;;;;;18.00;8.65;;;1.10;99.90;;;;;;6095742;23;20026;-71
2024/01/17 10:46:11;;;;;;;13.75;7.47;;;1.10;99.90;;;;;;6121337;23;20025;-70
2024/01/17 10:48:37;;;;;;;15.80;7.88;;;1.10;99.90;;;;;;6121468;23;20350;-71
2024/01/17 10:51:04;;;;;;;16.05;8.20;;;1.20;99.90;;;;;;6122242;23;20018;-70
2024/01/17 10:53:31;;;;;;;14.68;7.43;;;1.10;99.90;;;;;;6120810;23;20029;-70
2024/01/17 10:56:03;;;;;;;17.88;8.13;;;1.10;99.90;;;;;;6121538;23;20366;-71
2024/01/17 10:58:34;;;;;;;20.10;7.93;;;1.20;99.90;;;;;;6121532;23;20022;-70
2024/01/17 11:01:05;;;;;;;14.23;7.20;;;1.20;99.90;;;;;;6121294;23;20025;-71
2024/01/17 11:03:35;;;;;;;14.23;7.90;;;1.10;99.90;;;;;;6121548;23;20544;-70
2024/01/17 11:06:02;;;;;;;16.90;8.15;;;1.20;99.90;;;;;;6121968;23;20018;-71
2024/01/17 11:08:29;;;;;;;13.40;8.07;;;1.20;99.90;;;;;;6094286;23;20028;-69
2024/01/17 11:10:56;;;;;;;13.48;7.53;;;1.20;99.90;;;;;;6095205;23;20752;-70
2024/01/17 11:13:25;;;;;;;20.40;7.65;;;1.20;99.90;;;;;;6095093;23;20022;-70
2024/01/17 11:15:52;;;;;;;15.85;7.88;;;1.20;99.90;;;;;;6091185;23;20018;-70
2024/01/17 11:18:22;;;;;;;14.18;7.50;;;1.20;99.90;;;;;;6094454;23;20036;-70
2024/01/17 11:20:49;;;;;;;13.13;7.57;;;1.10;99.90;;;;;;6095150;23;20359;-70
2024/01/17 11:23:27;;;;;;;19.35;7.75;;;1.10;99.90;;;;;;6095038;23;20053;-70
2024/01/17 11:26:38;;;;;;;17.35;7.68;;;1.10;99.90;;;;;;6094237;23;20025;-70
2024/01/17 11:29:32;;;;;;;16.15;7.35;;;1.10;99.90;;;;;;6112522;23;20049;-70
2024/01/17 11:32:16;;;;;;;13.88;7.40;;;1.10;99.90;;;;;;6120493;23;20029;-70
2024/01/17 11:34:41;;;;;;;12.98;6.70;;;1.00;99.90;;;;;;6120164;23;20590;-70
2024/01/17 11:37:07;;;;;;;11.93;7.53;;;1.00;99.90;;;;;;6095141;23;20024;-70
2024/01/17 11:39:33;;;;;;;16.63;7.82;;;1.00;99.90;;;;;;6121310;23;20482;-70
2024/01/17 11:41:59;;;;;;;13.30;8.10;;;1.00;99.90;;;;;;6094192;23;20014;-70
2024/01/17 11:44:26;;;;;;;14.90;8.18;;;0.90;99.90;;;;;;6070503;23;20626;-69
2024/01/17 11:46:53;;;;;;;18.58;8.50;;;0.90;99.90;;;;;;6094441;23;20092;-70
2024/01/17 11:49:42;;;;;;;18.52;9.52;;;0.90;99.90;;;;;;6095796;23;20018;-69
2024/01/17 11:52:35;;;;;;;16.25;8.48;;;0.90;99.90;;;;;;6095608;23;20033;-69
2024/01/17 11:55:02;;;;;;;17.83;8.65;;;0.90;99.90;;;;;;6071050;23;20022;-69
2024/01/17 11:57:32;;;;;;;16.73;9.48;;;0.90;99.90;;;;;;6095146;23;20025;-71
2024/01/17 12:00:09;;;;;;;16.00;8.18;;;0.90;99.90;;;;;;6071074;23;20051;-69
2024/01/17 12:02:43;;;;;;;17.02;7.82;;;0.80;99.90;;;;;;6094614;23;20021;-69
2024/01/17 12:05:10;;;;;;;15.20;7.35;;;0.90;99.90;;;;;;6094966;23;20105;-70
2024/01/17 12:07:38;;;;;;;15.40;8.38;;;0.80;99.90;;;;;;6070803;23;20010;-70
2024/01/17 12:10:09;;;;;;;16.65;9.45;;;0.80;99.90;;;;;;6120860;23;20022;-70
2024/01/17 12:12:40;;;;;;;21.92;9.65;;;0.80;99.90;;;;;;6120992;23;20093;-70
2024/01/17 12:15:07;;;;;;;17.75;9.77;;;0.80;99.90;;;;;;6067251;23;20741;-70
2024/01/17 12:17:33;;;;;;;18.00;8.55;;;0.80;99.90;;;;;;6093362;23;20029;-70
2024/01/17 12:20:00;;;;;;;14.60;9.43;;;0.80;99.90;;;;;;6093222;23;20050;-70
2024/01/17 12:22:26;;;;;;;15.68;8.60;;;0.90;99.90;;;;;;6093001;23;20080;-70
2024/01/17 12:24:53;;;;;;;14.18;8.25;;;0.90;99.90;;;;;;6068108;23;20021;-68
2024/01/17 12:27:19;;;;;;;17.45;8.98;;;0.90;99.90;;;;;;6093623;23;20017;-70
2024/01/17 12:29:47;;;;;;;20.77;8.55;;;0.90;99.90;;;;;;6092617;23;20026;-70
2024/01/17 12:32:14;;;;;;;22.83;11.07;;;1.00;99.90;;;;;;6091915;23;20044;-69
2024/01/17 12:34:41;;;;;;;20.13;10.02;;;1.00;99.90;;;;;;6092938;23;20093;-70
2024/01/17 12:37:07;;;;;;;20.15;8.48;;;1.00;99.90;;;;;;6120317;23;20018;-70
2024/01/17 12:39:36;;;;;;;18.55;9.77;;;1.00;99.90;;;;;;6120581;23;20358;-70
2024/01/17 12:42:03;;;;;;;17.67;8.65;;;1.00;99.90;;;;;;6121259;23;20024;-69